sensor_id;sensor_type;location;lat;lon;timestamp;P1;durP1;ratioP1;P2;durP2;ratioP2
3311;SDS011;1668;49.648;8.570;2023-05-10T00:01:27;1.30;;;0.80;;
3311;SDS011;1668;49.648;8.570;2023-05-10T00:04:13;1.00;;;0.90;;
3311;SDS011;1668;49.648;8.570;2023-05-10T00:06:40;1.90;;;0.83;;
3311;SDS011;1668;49.648;8.570;2023-05-10T00:09:08;3.50;;;0.97;;
3311;SDS011;1668;49.648;8.570;2023-05-10T00:11:34;1.40;;;0.97;;
3311;SDS011;1668;49.648;8.570;2023-05-10T00:14:01;1.33;;;1.00;;
3311;SDS011;1668;49.648;8.570;2023-05-10T00:16:28;2.43;;;0.90;;
3311;SDS011;1668;49.648;8.570;2023-05-10T00:18:55;1.20;;;0.80;;
3311;SDS011;1668;49.648;8.570;2023-05-10T00:21:22;2.07;;;1.00;;
3311;SDS011;1668;49.648;8.570;2023-05-10T00:23:48;2.07;;;1.07;;
3311;SDS011;1668;49.648;8.570;2023-05-10T00:26:17;1.60;;;0.90;;
3311;SDS011;1668;49.648;8.570;2023-05-10T00:28:43;1.80;;;1.23;;
3311;SDS011;1668;49.648;8.570;2023-05-10T00:31:10;5.53;;;1.27;;
3311;SDS011;1668;49.648;8.570;2023-05-10T00:33:37;2.10;;;1.10;;
3311;SDS011;1668;49.648;8.570;2023-05-10T00:36:04;3.10;;;1.27;;
3311;SDS011;1668;49.648;8.570;2023-05-10T00:38:32;2.23;;;1.00;;
3311;SDS011;1668;49.648;8.570;2023-05-10T00:41:00;2.23;;;1.03;;
3311;SDS011;1668;49.648;8.570;2023-05-10T00:43:28;2.37;;;1.20;;
3311;SDS011;1668;49.648;8.570;2023-05-10T00:45:55;1.40;;;0.90;;
3311;SDS011;1668;49.648;8.570;2023-05-10T00:48:21;1.73;;;1.23;;
3311;SDS011;1668;49.648;8.570;2023-05-10T00:50:49;1.73;;;1.23;;
3311;SDS011;1668;49.648;8.570;2023-05-10T00:53:16;2.50;;;1.30;;
3311;SDS011;1668;49.648;8.570;2023-05-10T00:55:43;2.90;;;1.10;;
3311;SDS011;1668;49.648;8.570;2023-05-10T00:58:10;2.80;;;1.43;;
3311;SDS011;1668;49.648;8.570;2023-05-10T01:00:38;2.20;;;1.10;;
3311;SDS011;1668;49.648;8.570;2023-05-10T01:03:08;1.47;;;0.80;;
3311;SDS011;1668;49.648;8.570;2023-05-10T01:05:36;2.30;;;1.10;;
3311;SDS011;1668;49.648;8.570;2023-05-10T01:08:03;2.40;;;1.20;;
3311;SDS011;1668;49.648;8.570;2023-05-10T01:10:31;1.40;;;0.93;;
3311;SDS011;1668;49.648;8.570;2023-05-10T01:12:58;1.87;;;1.23;;
3311;SDS011;1668;49.648;8.570;2023-05-10T01:15:25;1.13;;;1.03;;
3311;SDS011;1668;49.648;8.570;2023-05-10T01:17:54;1.83;;;1.00;;
3311;SDS011;1668;49.648;8.570;2023-05-10T01:20:22;1.10;;;1.00;;
3311;SDS011;1668;49.648;8.570;2023-05-10T01:23:10;2.13;;;1.40;;
3311;SDS011;1668;49.648;8.570;2023-05-10T01:26:02;2.20;;;1.40;;
3311;SDS011;1668;49.648;8.570;2023-05-10T01:31:31;1.67;;;1.40;;
3311;SDS011;1668;49.648;8.570;2023-05-10T01:34:23;2.27;;;1.40;;
3311;SDS011;1668;49.648;8.570;2023-05-10T01:36:58;1.87;;;1.20;;
3311;SDS011;1668;49.648;8.570;2023-05-10T01:39:28;2.07;;;1.40;;
3311;SDS011;1668;49.648;8.570;2023-05-10T01:42:07;1.60;;;1.40;;
3311;SDS011;1668;49.648;8.570;2023-05-10T01:44:37;2.60;;;1.70;;
3311;SDS011;1668;49.648;8.570;2023-05-10T01:47:09;2.83;;;1.60;;
3311;SDS011;1668;49.648;8.570;2023-05-10T01:49:41;3.00;;;1.50;;
3311;SDS011;1668;49.648;8.570;2023-05-10T01:52:12;2.73;;;1.43;;
3311;SDS011;1668;49.648;8.570;2023-05-10T01:54:44;2.93;;;1.60;;
3311;SDS011;1668;49.648;8.570;2023-05-10T01:57:18;2.43;;;1.70;;
3311;SDS011;1668;49.648;8.570;2023-05-10T01:59:46;1.90;;;1.70;;
3311;SDS011;1668;49.648;8.570;2023-05-10T02:02:17;1.67;;;1.57;;
3311;SDS011;1668;49.648;8.570;2023-05-10T02:04:47;2.90;;;1.50;;
3311;SDS011;1668;49.648;8.570;2023-05-10T02:07:16;1.87;;;1.30;;
3311;SDS011;1668;49.648;8.570;2023-05-10T02:09:44;2.97;;;2.10;;
3311;SDS011;1668;49.648;8.570;2023-05-10T02:12:13;3.90;;;1.67;;
3311;SDS011;1668;49.648;8.570;2023-05-10T02:14:41;2.30;;;1.77;;
3311;SDS011;1668;49.648;8.570;2023-05-10T02:17:09;2.07;;;1.60;;
3311;SDS011;1668;49.648;8.570;2023-05-10T02:19:36;2.03;;;1.40;;
3311;SDS011;1668;49.648;8.570;2023-05-10T02:22:06;2.37;;;1.70;;
3311;SDS011;1668;49.648;8.570;2023-05-10T02:24:35;3.70;;;1.63;;
3311;SDS011;1668;49.648;8.570;2023-05-10T02:27:03;2.40;;;1.50;;
3311;SDS011;1668;49.648;8.570;2023-05-10T02:29:32;2.60;;;1.63;;
3311;SDS011;1668;49.648;8.570;2023-05-10T02:31:59;3.10;;;1.50;;
3311;SDS011;1668;49.648;8.570;2023-05-10T02:34:27;2.57;;;1.67;;
3311;SDS011;1668;49.648;8.570;2023-05-10T02:36:55;1.60;;;1.50;;
3311;SDS011;1668;49.648;8.570;2023-05-10T02:39:24;1.77;;;1.40;;
3311;SDS011;1668;49.648;8.570;2023-05-10T02:41:53;1.73;;;1.33;;
3311;SDS011;1668;49.648;8.570;2023-05-10T02:44:21;4.63;;;1.50;;
3311;SDS011;1668;49.648;8.570;2023-05-10T02:46:49;3.37;;;1.60;;
3311;SDS011;1668;49.648;8.570;2023-05-10T02:49:16;1.70;;;1.60;;
3311;SDS011;1668;49.648;8.570;2023-05-10T02:51:47;3.53;;;1.97;;
3311;SDS011;1668;49.648;8.570;2023-05-10T02:54:18;2.60;;;1.37;;
3311;SDS011;1668;49.648;8.570;2023-05-10T02:56:49;1.73;;;1.57;;
3311;SDS011;1668;49.648;8.570;2023-05-10T02:59:19;4.80;;;1.60;;
3311;SDS011;1668;49.648;8.570;2023-05-10T03:01:46;3.60;;;1.70;;
3311;SDS011;1668;49.648;8.570;2023-05-10T03:04:13;5.27;;;1.43;;
3311;SDS011;1668;49.648;8.570;2023-05-10T03:06:40;3.00;;;1.50;;
3311;SDS011;1668;49.648;8.570;2023-05-10T03:09:07;1.87;;;1.63;;
3311;SDS011;1668;49.648;8.570;2023-05-10T03:11:39;2.17;;;1.97;;
3311;SDS011;1668;49.648;8.570;2023-05-10T03:14:21;4.20;;;2.20;;
3311;SDS011;1668;49.648;8.570;2023-05-10T03:16:57;5.00;;;2.00;;
3311;SDS011;1668;49.648;8.570;2023-05-10T03:19:30;2.80;;;1.93;;
3311;SDS011;1668;49.648;8.570;2023-05-10T03:22:04;3.60;;;2.17;;
3311;SDS011;1668;49.648;8.570;2023-05-10T03:24:36;3.23;;;2.40;;
3311;SDS011;1668;49.648;8.570;2023-05-10T03:27:05;2.70;;;2.30;;
3311;SDS011;1668;49.648;8.570;2023-05-10T03:29:35;2.40;;;1.90;;
3311;SDS011;1668;49.648;8.570;2023-05-10T03:32:04;4.90;;;2.00;;
3311;SDS011;1668;49.648;8.570;2023-05-10T03:34:31;2.33;;;2.10;;
3311;SDS011;1668;49.648;8.570;2023-05-10T03:36:57;6.07;;;2.10;;
3311;SDS011;1668;49.648;8.570;2023-05-10T03:39:24;4.63;;;2.70;;
3311;SDS011;1668;49.648;8.570;2023-05-10T03:41:51;2.37;;;2.17;;
3311;SDS011;1668;49.648;8.570;2023-05-10T03:44:18;2.50;;;1.87;;
3311;SDS011;1668;49.648;8.570;2023-05-10T03:46:46;2.60;;;2.07;;
3311;SDS011;1668;49.648;8.570;2023-05-10T03:49:12;2.30;;;2.10;;
3311;SDS011;1668;49.648;8.570;2023-05-10T03:51:39;2.40;;;2.10;;
3311;SDS011;1668;49.648;8.570;2023-05-10T03:54:06;2.90;;;2.30;;
3311;SDS011;1668;49.648;8.570;2023-05-10T03:56:33;2.20;;;1.80;;
3311;SDS011;1668;49.648;8.570;2023-05-10T03:58:59;4.37;;;2.27;;
3311;SDS011;1668;49.648;8.570;2023-05-10T04:01:26;3.40;;;1.93;;
3311;SDS011;1668;49.648;8.570;2023-05-10T04:03:54;3.23;;;1.80;;
3311;SDS011;1668;49.648;8.570;2023-05-10T04:06:21;3.60;;;2.27;;
3311;SDS011;1668;49.648;8.570;2023-05-10T04:08:48;3.33;;;2.03;;
3311;SDS011;1668;49.648;8.570;2023-05-10T04:11:14;3.27;;;1.90;;
3311;SDS011;1668;49.648;8.570;2023-05-10T04:13:41;2.50;;;1.87;;
3311;SDS011;1668;49.648;8.570;2023-05-10T04:16:09;4.23;;;2.27;;
3311;SDS011;1668;49.648;8.570;2023-05-10T04:18:35;2.20;;;2.00;;
3311;SDS011;1668;49.648;8.570;2023-05-10T04:21:04;5.00;;;1.90;;
3311;SDS011;1668;49.648;8.570;2023-05-10T04:23:30;4.13;;;2.00;;
3311;SDS011;1668;49.648;8.570;2023-05-10T04:26:00;4.23;;;2.10;;
3311;SDS011;1668;49.648;8.570;2023-05-10T04:28:27;2.63;;;2.43;;
3311;SDS011;1668;49.648;8.570;2023-05-10T04:31:00;8.40;;;2.80;;
3311;SDS011;1668;49.648;8.570;2023-05-10T04:33:27;4.07;;;2.00;;
3311;SDS011;1668;49.648;8.570;2023-05-10T04:35:54;2.60;;;2.27;;
3311;SDS011;1668;49.648;8.570;2023-05-10T04:38:22;4.07;;;2.10;;
3311;SDS011;1668;49.648;8.570;2023-05-10T04:40:48;2.40;;;2.20;;
3311;SDS011;1668;49.648;8.570;2023-05-10T04:43:15;3.70;;;2.60;;
3311;SDS011;1668;49.648;8.570;2023-05-10T04:45:42;3.47;;;2.20;;
3311;SDS011;1668;49.648;8.570;2023-05-10T04:48:09;4.10;;;2.50;;
3311;SDS011;1668;49.648;8.570;2023-05-10T04:50:36;2.60;;;2.40;;
3311;SDS011;1668;49.648;8.570;2023-05-10T04:53:03;2.80;;;2.40;;
3311;SDS011;1668;49.648;8.570;2023-05-10T04:55:31;6.63;;;2.13;;
3311;SDS011;1668;49.648;8.570;2023-05-10T04:57:58;8.20;;;2.43;;
3311;SDS011;1668;49.648;8.570;2023-05-10T05:00:24;3.87;;;2.30;;
3311;SDS011;1668;49.648;8.570;2023-05-10T05:02:51;3.13;;;2.77;;
3311;SDS011;1668;49.648;8.570;2023-05-10T05:05:18;3.10;;;2.50;;
3311;SDS011;1668;49.648;8.570;2023-05-10T05:07:45;8.80;;;2.50;;
3311;SDS011;1668;49.648;8.570;2023-05-10T05:10:11;7.33;;;3.00;;
3311;SDS011;1668;49.648;8.570;2023-05-10T05:12:39;2.90;;;2.50;;
3311;SDS011;1668;49.648;8.570;2023-05-10T05:15:07;6.63;;;2.30;;
3311;SDS011;1668;49.648;8.570;2023-05-10T05:17:34;3.60;;;2.33;;
3311;SDS011;1668;49.648;8.570;2023-05-10T05:20:02;4.70;;;2.30;;
3311;SDS011;1668;49.648;8.570;2023-05-10T05:22:29;5.10;;;2.83;;
3311;SDS011;1668;49.648;8.570;2023-05-10T05:24:56;3.90;;;2.30;;
3311;SDS011;1668;49.648;8.570;2023-05-10T05:27:23;2.77;;;2.40;;
3311;SDS011;1668;49.648;8.570;2023-05-10T05:29:53;5.63;;;2.60;;
3311;SDS011;1668;49.648;8.570;2023-05-10T05:32:20;4.97;;;2.30;;
3311;SDS011;1668;49.648;8.570;2023-05-10T05:34:47;2.93;;;2.50;;
3311;SDS011;1668;49.648;8.570;2023-05-10T05:37:14;4.03;;;2.80;;
3311;SDS011;1668;49.648;8.570;2023-05-10T05:39:41;7.13;;;2.63;;
3311;SDS011;1668;49.648;8.570;2023-05-10T05:42:08;4.07;;;2.87;;
3311;SDS011;1668;49.648;8.570;2023-05-10T05:44:35;2.97;;;2.43;;
3311;SDS011;1668;49.648;8.570;2023-05-10T05:47:04;5.17;;;3.13;;
3311;SDS011;1668;49.648;8.570;2023-05-10T05:49:31;5.37;;;3.20;;
3311;SDS011;1668;49.648;8.570;2023-05-10T05:51:58;3.87;;;3.10;;
3311;SDS011;1668;49.648;8.570;2023-05-10T05:54:25;3.70;;;3.27;;
3311;SDS011;1668;49.648;8.570;2023-05-10T05:56:53;3.73;;;3.10;;
3311;SDS011;1668;49.648;8.570;2023-05-10T05:59:20;5.10;;;3.73;;
3311;SDS011;1668;49.648;8.570;2023-05-10T06:01:47;4.93;;;3.20;;
3311;SDS011;1668;49.648;8.570;2023-05-10T06:04:16;4.37;;;3.47;;
3311;SDS011;1668;49.648;8.570;2023-05-10T06:06:43;3.23;;;2.80;;
3311;SDS011;1668;49.648;8.570;2023-05-10T06:09:10;3.73;;;3.00;;
3311;SDS011;1668;49.648;8.570;2023-05-10T06:11:37;3.30;;;3.00;;
3311;SDS011;1668;49.648;8.570;2023-05-10T06:14:04;4.87;;;2.77;;
3311;SDS011;1668;49.648;8.570;2023-05-10T06:16:32;4.57;;;3.00;;
3311;SDS011;1668;49.648;8.570;2023-05-10T06:18:59;4.20;;;3.03;;
3311;SDS011;1668;49.648;8.570;2023-05-10T06:21:28;3.00;;;2.70;;
3311;SDS011;1668;49.648;8.570;2023-05-10T06:23:55;4.03;;;3.53;;
3311;SDS011;1668;49.648;8.570;2023-05-10T06:26:21;4.87;;;2.97;;
3311;SDS011;1668;49.648;8.570;2023-05-10T06:28:48;7.10;;;4.07;;
3311;SDS011;1668;49.648;8.570;2023-05-10T06:31:15;5.60;;;3.43;;
3311;SDS011;1668;49.648;8.570;2023-05-10T06:33:42;5.63;;;3.93;;
3311;SDS011;1668;49.648;8.570;2023-05-10T06:36:09;5.00;;;3.30;;
3311;SDS011;1668;49.648;8.570;2023-05-10T06:38:37;5.60;;;3.40;;
3311;SDS011;1668;49.648;8.570;2023-05-10T06:41:04;4.57;;;3.23;;
3311;SDS011;1668;49.648;8.570;2023-05-10T06:43:31;5.20;;;3.50;;
3311;SDS011;1668;49.648;8.570;2023-05-10T06:45:58;5.40;;;4.00;;
3311;SDS011;1668;49.648;8.570;2023-05-10T06:48:25;5.50;;;3.60;;
3311;SDS011;1668;49.648;8.570;2023-05-10T06:50:51;7.60;;;3.53;;
3311;SDS011;1668;49.648;8.570;2023-05-10T06:53:18;5.40;;;3.27;;
3311;SDS011;1668;49.648;8.570;2023-05-10T06:55:46;5.03;;;3.30;;
3311;SDS011;1668;49.648;8.570;2023-05-10T06:58:15;4.53;;;3.40;;
3311;SDS011;1668;49.648;8.570;2023-05-10T07:00:41;3.53;;;3.23;;
3311;SDS011;1668;49.648;8.570;2023-05-10T07:03:09;5.00;;;3.47;;
3311;SDS011;1668;49.648;8.570;2023-05-10T07:05:36;3.90;;;3.27;;
3311;SDS011;1668;49.648;8.570;2023-05-10T07:08:02;4.10;;;3.70;;
3311;SDS011;1668;49.648;8.570;2023-05-10T07:10:29;6.43;;;3.90;;
3311;SDS011;1668;49.648;8.570;2023-05-10T07:12:57;5.67;;;4.30;;
3311;SDS011;1668;49.648;8.570;2023-05-10T07:15:25;4.40;;;3.20;;
3311;SDS011;1668;49.648;8.570;2023-05-10T07:17:52;4.60;;;3.50;;
3311;SDS011;1668;49.648;8.570;2023-05-10T07:20:18;4.90;;;3.40;;
3311;SDS011;1668;49.648;8.570;2023-05-10T07:22:45;4.17;;;3.13;;
3311;SDS011;1668;49.648;8.570;2023-05-10T07:25:12;7.73;;;4.10;;
3311;SDS011;1668;49.648;8.570;2023-05-10T07:27:39;7.33;;;5.10;;
3311;SDS011;1668;49.648;8.570;2023-05-10T07:30:08;6.63;;;4.70;;
3311;SDS011;1668;49.648;8.570;2023-05-10T07:32:35;4.93;;;4.30;;
3311;SDS011;1668;49.648;8.570;2023-05-10T07:35:02;5.33;;;4.83;;
3311;SDS011;1668;49.648;8.570;2023-05-10T07:37:29;5.53;;;4.97;;
3311;SDS011;1668;49.648;8.570;2023-05-10T07:39:56;7.07;;;4.20;;
3311;SDS011;1668;49.648;8.570;2023-05-10T07:42:23;5.53;;;4.43;;
3311;SDS011;1668;49.648;8.570;2023-05-10T07:44:49;7.00;;;4.80;;
3311;SDS011;1668;49.648;8.570;2023-05-10T07:47:17;6.40;;;5.00;;
3311;SDS011;1668;49.648;8.570;2023-05-10T07:49:44;5.77;;;4.40;;
3311;SDS011;1668;49.648;8.570;2023-05-10T07:52:11;5.83;;;4.53;;
3311;SDS011;1668;49.648;8.570;2023-05-10T07:54:38;6.20;;;4.57;;
3311;SDS011;1668;49.648;8.570;2023-05-10T07:57:05;6.67;;;3.97;;
3311;SDS011;1668;49.648;8.570;2023-05-10T07:59:32;4.20;;;3.43;;
3311;SDS011;1668;49.648;8.570;2023-05-10T08:01:59;5.97;;;3.93;;
3311;SDS011;1668;49.648;8.570;2023-05-10T08:04:27;10.40;;;4.00;;
3311;SDS011;1668;49.648;8.570;2023-05-10T08:06:54;4.27;;;3.10;;
3311;SDS011;1668;49.648;8.570;2023-05-10T08:09:20;3.23;;;2.50;;
3311;SDS011;1668;49.648;8.570;2023-05-10T08:11:48;5.23;;;2.97;;
3311;SDS011;1668;49.648;8.570;2023-05-10T08:14:15;3.80;;;2.40;;
3311;SDS011;1668;49.648;8.570;2023-05-10T08:16:42;3.00;;;1.60;;
3311;SDS011;1668;49.648;8.570;2023-05-10T08:19:09;4.10;;;1.70;;
3311;SDS011;1668;49.648;8.570;2023-05-10T08:21:37;3.33;;;1.70;;
3311;SDS011;1668;49.648;8.570;2023-05-10T08:24:05;2.90;;;1.67;;
3311;SDS011;1668;49.648;8.570;2023-05-10T08:26:32;2.30;;;1.57;;
3311;SDS011;1668;49.648;8.570;2023-05-10T08:28:59;2.30;;;1.70;;
3311;SDS011;1668;49.648;8.570;2023-05-10T08:31:26;4.93;;;1.90;;
3311;SDS011;1668;49.648;8.570;2023-05-10T08:33:53;3.00;;;1.50;;
3311;SDS011;1668;49.648;8.570;2023-05-10T08:36:19;2.23;;;1.53;;
3311;SDS011;1668;49.648;8.570;2023-05-10T08:38:50;3.07;;;1.60;;
3311;SDS011;1668;49.648;8.570;2023-05-10T08:41:18;2.73;;;1.73;;
3311;SDS011;1668;49.648;8.570;2023-05-10T08:43:46;4.93;;;2.30;;
3311;SDS011;1668;49.648;8.570;2023-05-10T08:49:02;1.40;;;1.00;;
3311;SDS011;1668;49.648;8.570;2023-05-10T08:51:33;3.20;;;1.47;;
3311;SDS011;1668;49.648;8.570;2023-05-10T08:54:04;2.53;;;1.30;;
3311;SDS011;1668;49.648;8.570;2023-05-10T08:56:31;3.37;;;1.33;;
3311;SDS011;1668;49.648;8.570;2023-05-10T08:58:58;2.30;;;1.30;;
3311;SDS011;1668;49.648;8.570;2023-05-10T09:01:25;3.80;;;1.30;;
3311;SDS011;1668;49.648;8.570;2023-05-10T09:04:12;1.93;;;1.23;;
3311;SDS011;1668;49.648;8.570;2023-05-10T09:06:39;1.90;;;1.17;;
3311;SDS011;1668;49.648;8.570;2023-05-10T09:09:08;1.50;;;1.20;;
3311;SDS011;1668;49.648;8.570;2023-05-10T09:11:50;1.97;;;1.20;;
3311;SDS011;1668;49.648;8.570;2023-05-10T09:14:18;2.40;;;1.40;;
3311;SDS011;1668;49.648;8.570;2023-05-10T09:17:04;3.10;;;1.20;;
3311;SDS011;1668;49.648;8.570;2023-05-10T09:19:50;1.80;;;1.40;;
3311;SDS011;1668;49.648;8.570;2023-05-10T09:22:44;2.13;;;1.40;;
3311;SDS011;1668;49.648;8.570;2023-05-10T09:25:12;4.20;;;1.43;;
3311;SDS011;1668;49.648;8.570;2023-05-10T09:27:41;2.13;;;1.17;;
3311;SDS011;1668;49.648;8.570;2023-05-10T09:30:11;7.37;;;1.10;;
3311;SDS011;1668;49.648;8.570;2023-05-10T09:32:43;7.80;;;1.33;;
3311;SDS011;1668;49.648;8.570;2023-05-10T09:35:11;1.47;;;1.30;;
3311;SDS011;1668;49.648;8.570;2023-05-10T09:37:39;1.70;;;1.23;;
3311;SDS011;1668;49.648;8.570;2023-05-10T09:40:08;2.80;;;1.37;;
3311;SDS011;1668;49.648;8.570;2023-05-10T09:42:40;2.97;;;1.60;;
3311;SDS011;1668;49.648;8.570;2023-05-10T09:45:08;2.03;;;1.50;;
3311;SDS011;1668;49.648;8.570;2023-05-10T09:47:35;2.40;;;1.43;;
3311;SDS011;1668;49.648;8.570;2023-05-10T09:50:03;3.63;;;1.70;;
3311;SDS011;1668;49.648;8.570;2023-05-10T09:52:31;6.33;;;1.37;;
3311;SDS011;1668;49.648;8.570;2023-05-10T09:55:14;4.80;;;1.70;;
3311;SDS011;1668;49.648;8.570;2023-05-10T09:57:41;2.23;;;1.73;;
3311;SDS011;1668;49.648;8.570;2023-05-10T10:00:08;4.17;;;1.70;;
3311;SDS011;1668;49.648;8.570;2023-05-10T10:02:36;4.97;;;1.90;;
3311;SDS011;1668;49.648;8.570;2023-05-10T10:05:03;5.00;;;1.50;;
3311;SDS011;1668;49.648;8.570;2023-05-10T10:07:32;1.50;;;1.40;;
3311;SDS011;1668;49.648;8.570;2023-05-10T10:09:59;1.50;;;1.23;;
3311;SDS011;1668;49.648;8.570;2023-05-10T10:12:28;2.10;;;1.80;;
3311;SDS011;1668;49.648;8.570;2023-05-10T10:14:56;3.03;;;1.87;;
3311;SDS011;1668;49.648;8.570;2023-05-10T10:17:23;4.90;;;1.47;;
3311;SDS011;1668;49.648;8.570;2023-05-10T10:19:53;2.00;;;1.50;;
3311;SDS011;1668;49.648;8.570;2023-05-10T10:22:21;2.57;;;1.60;;
3311;SDS011;1668;49.648;8.570;2023-05-10T10:24:48;8.03;;;1.40;;
3311;SDS011;1668;49.648;8.570;2023-05-10T10:27:19;1.60;;;1.30;;
3311;SDS011;1668;49.648;8.570;2023-05-10T10:30:00;2.77;;;1.60;;
3311;SDS011;1668;49.648;8.570;2023-05-10T10:32:42;4.83;;;1.80;;
3311;SDS011;1668;49.648;8.570;2023-05-10T10:35:37;2.60;;;1.60;;
3311;SDS011;1668;49.648;8.570;2023-05-10T10:38:05;2.47;;;1.80;;
3311;SDS011;1668;49.648;8.570;2023-05-10T10:40:34;2.43;;;1.60;;
3311;SDS011;1668;49.648;8.570;2023-05-10T10:48:39;3.20;;;1.87;;
3311;SDS011;1668;49.648;8.570;2023-05-10T10:51:07;2.03;;;1.20;;
3311;SDS011;1668;49.648;8.570;2023-05-10T10:53:34;4.03;;;1.33;;
3311;SDS011;1668;49.648;8.570;2023-05-10T10:56:06;7.40;;;1.80;;
3311;SDS011;1668;49.648;8.570;2023-05-10T10:58:34;2.40;;;1.23;;
3311;SDS011;1668;49.648;8.570;2023-05-10T11:01:09;1.87;;;1.13;;
3311;SDS011;1668;49.648;8.570;2023-05-10T11:03:39;3.50;;;1.33;;
3311;SDS011;1668;49.648;8.570;2023-05-10T11:06:06;3.13;;;0.90;;
3311;SDS011;1668;49.648;8.570;2023-05-10T11:08:34;2.50;;;1.40;;
3311;SDS011;1668;49.648;8.570;2023-05-10T11:11:08;4.30;;;1.50;;
3311;SDS011;1668;49.648;8.570;2023-05-10T11:13:39;1.40;;;0.97;;
3311;SDS011;1668;49.648;8.570;2023-05-10T11:16:14;1.73;;;1.10;;
3311;SDS011;1668;49.648;8.570;2023-05-10T11:19:01;4.53;;;1.10;;
3311;SDS011;1668;49.648;8.570;2023-05-10T11:21:29;4.50;;;1.70;;
3311;SDS011;1668;49.648;8.570;2023-05-10T11:23:56;4.20;;;1.90;;
3311;SDS011;1668;49.648;8.570;2023-05-10T11:26:24;6.40;;;1.83;;
3311;SDS011;1668;49.648;8.570;2023-05-10T11:28:56;19.30;;;5.83;;
3311;SDS011;1668;49.648;8.570;2023-05-10T11:31:24;4.43;;;2.03;;
3311;SDS011;1668;49.648;8.570;2023-05-10T11:33:52;3.20;;;1.27;;
3311;SDS011;1668;49.648;8.570;2023-05-10T11:36:22;2.87;;;1.60;;
3311;SDS011;1668;49.648;8.570;2023-05-10T11:38:51;12.27;;;1.20;;
3311;SDS011;1668;49.648;8.570;2023-05-10T11:41:18;3.73;;;1.00;;
3311;SDS011;1668;49.648;8.570;2023-05-10T11:43:47;2.20;;;1.07;;
3311;SDS011;1668;49.648;8.570;2023-05-10T11:46:16;2.47;;;1.10;;
3311;SDS011;1668;49.648;8.570;2023-05-10T11:48:45;1.47;;;1.10;;
3311;SDS011;1668;49.648;8.570;2023-05-10T11:51:14;1.50;;;1.10;;
3311;SDS011;1668;49.648;8.570;2023-05-10T11:53:42;6.10;;;1.20;;
3311;SDS011;1668;49.648;8.570;2023-05-10T11:56:09;1.83;;;1.17;;
3311;SDS011;1668;49.648;8.570;2023-05-10T11:58:38;2.03;;;1.20;;
3311;SDS011;1668;49.648;8.570;2023-05-10T12:01:06;2.30;;;1.20;;
3311;SDS011;1668;49.648;8.570;2023-05-10T12:03:34;1.70;;;1.07;;
3311;SDS011;1668;49.648;8.570;2023-05-10T12:06:01;1.50;;;1.00;;
3311;SDS011;1668;49.648;8.570;2023-05-10T12:08:28;2.17;;;1.10;;
3311;SDS011;1668;49.648;8.570;2023-05-10T12:11:05;2.07;;;0.90;;
3311;SDS011;1668;49.648;8.570;2023-05-10T12:13:37;2.27;;;1.20;;
3311;SDS011;1668;49.648;8.570;2023-05-10T12:16:12;2.43;;;1.10;;
3311;SDS011;1668;49.648;8.570;2023-05-10T12:18:39;3.60;;;1.10;;
3311;SDS011;1668;49.648;8.570;2023-05-10T12:21:07;4.20;;;1.00;;
3311;SDS011;1668;49.648;8.570;2023-05-10T12:23:36;3.73;;;1.27;;
3311;SDS011;1668;49.648;8.570;2023-05-10T12:26:04;3.00;;;1.10;;
3311;SDS011;1668;49.648;8.570;2023-05-10T12:28:32;1.53;;;1.10;;
3311;SDS011;1668;49.648;8.570;2023-05-10T12:31:00;2.00;;;1.10;;
3311;SDS011;1668;49.648;8.570;2023-05-10T12:33:27;2.67;;;0.90;;
3311;SDS011;1668;49.648;8.570;2023-05-10T12:36:04;5.37;;;1.30;;
3311;SDS011;1668;49.648;8.570;2023-05-10T12:38:32;2.43;;;0.93;;
3311;SDS011;1668;49.648;8.570;2023-05-10T12:41:01;1.40;;;0.90;;
3311;SDS011;1668;49.648;8.570;2023-05-10T12:43:31;4.20;;;1.40;;
3311;SDS011;1668;49.648;8.570;2023-05-10T12:46:03;2.20;;;0.90;;
3311;SDS011;1668;49.648;8.570;2023-05-10T12:48:31;2.33;;;1.20;;
3311;SDS011;1668;49.648;8.570;2023-05-10T12:50:59;3.20;;;1.30;;
3311;SDS011;1668;49.648;8.570;2023-05-10T12:53:25;1.50;;;0.90;;
3311;SDS011;1668;49.648;8.570;2023-05-10T12:55:52;1.90;;;1.00;;
3311;SDS011;1668;49.648;8.570;2023-05-10T12:58:19;3.37;;;0.97;;
3311;SDS011;1668;49.648;8.570;2023-05-10T13:00:47;2.13;;;1.00;;
3311;SDS011;1668;49.648;8.570;2023-05-10T13:03:14;3.33;;;1.00;;
3311;SDS011;1668;49.648;8.570;2023-05-10T13:05:41;2.70;;;0.90;;
3311;SDS011;1668;49.648;8.570;2023-05-10T13:08:08;2.10;;;1.13;;
3311;SDS011;1668;49.648;8.570;2023-05-10T13:10:34;3.13;;;1.40;;
3311;SDS011;1668;49.648;8.570;2023-05-10T13:13:01;2.00;;;1.10;;
3311;SDS011;1668;49.648;8.570;2023-05-10T13:15:28;3.23;;;1.40;;
3311;SDS011;1668;49.648;8.570;2023-05-10T13:17:56;2.50;;;1.17;;
3311;SDS011;1668;49.648;8.570;2023-05-10T13:20:23;3.20;;;1.30;;
3311;SDS011;1668;49.648;8.570;2023-05-10T13:22:50;2.40;;;1.20;;
3311;SDS011;1668;49.648;8.570;2023-05-10T13:25:17;2.77;;;1.40;;
3311;SDS011;1668;49.648;8.570;2023-05-10T13:27:44;1.97;;;1.10;;
3311;SDS011;1668;49.648;8.570;2023-05-10T13:30:11;4.60;;;1.40;;
3311;SDS011;1668;49.648;8.570;2023-05-10T13:32:38;3.87;;;1.50;;
3311;SDS011;1668;49.648;8.570;2023-05-10T13:35:07;2.70;;;1.10;;
3311;SDS011;1668;49.648;8.570;2023-05-10T13:37:34;3.67;;;1.20;;
3311;SDS011;1668;49.648;8.570;2023-05-10T13:40:02;3.53;;;1.00;;
3311;SDS011;1668;49.648;8.570;2023-05-10T13:42:30;3.97;;;1.50;;
3311;SDS011;1668;49.648;8.570;2023-05-10T13:44:58;1.40;;;1.00;;
3311;SDS011;1668;49.648;8.570;2023-05-10T13:47:25;2.53;;;1.27;;
3311;SDS011;1668;49.648;8.570;2023-05-10T13:49:52;3.83;;;1.30;;
3311;SDS011;1668;49.648;8.570;2023-05-10T13:52:20;6.57;;;1.20;;
3311;SDS011;1668;49.648;8.570;2023-05-10T13:54:47;7.23;;;1.23;;
3311;SDS011;1668;49.648;8.570;2023-05-10T13:57:13;2.23;;;1.13;;
3311;SDS011;1668;49.648;8.570;2023-05-10T13:59:41;4.97;;;1.23;;
3311;SDS011;1668;49.648;8.570;2023-05-10T14:02:08;1.60;;;0.93;;
3311;SDS011;1668;49.648;8.570;2023-05-10T14:04:35;6.20;;;1.30;;
3311;SDS011;1668;49.648;8.570;2023-05-10T14:07:02;2.47;;;0.90;;
3311;SDS011;1668;49.648;8.570;2023-05-10T14:09:30;4.87;;;1.00;;
3311;SDS011;1668;49.648;8.570;2023-05-10T14:11:57;5.87;;;1.30;;
3311;SDS011;1668;49.648;8.570;2023-05-10T14:14:24;3.93;;;1.07;;
3311;SDS011;1668;49.648;8.570;2023-05-10T14:16:51;5.30;;;1.30;;
3311;SDS011;1668;49.648;8.570;2023-05-10T14:19:17;2.60;;;0.83;;
3311;SDS011;1668;49.648;8.570;2023-05-10T14:21:44;5.33;;;1.20;;
3311;SDS011;1668;49.648;8.570;2023-05-10T14:24:11;3.03;;;0.80;;
3311;SDS011;1668;49.648;8.570;2023-05-10T14:26:39;2.67;;;1.10;;
3311;SDS011;1668;49.648;8.570;2023-05-10T14:29:06;2.10;;;1.10;;
3311;SDS011;1668;49.648;8.570;2023-05-10T14:31:33;1.83;;;1.10;;
3311;SDS011;1668;49.648;8.570;2023-05-10T14:34:00;2.70;;;1.00;;
3311;SDS011;1668;49.648;8.570;2023-05-10T14:36:27;5.23;;;0.90;;
3311;SDS011;1668;49.648;8.570;2023-05-10T14:38:55;3.03;;;0.90;;
3311;SDS011;1668;49.648;8.570;2023-05-10T14:41:21;2.20;;;0.97;;
3311;SDS011;1668;49.648;8.570;2023-05-10T14:43:51;2.43;;;0.77;;
3311;SDS011;1668;49.648;8.570;2023-05-10T14:46:17;2.40;;;1.00;;
3311;SDS011;1668;49.648;8.570;2023-05-10T14:48:44;1.87;;;0.90;;
3311;SDS011;1668;49.648;8.570;2023-05-10T14:51:11;4.13;;;1.27;;
3311;SDS011;1668;49.648;8.570;2023-05-10T14:53:38;5.30;;;1.10;;
3311;SDS011;1668;49.648;8.570;2023-05-10T14:56:05;1.70;;;0.80;;
3311;SDS011;1668;49.648;8.570;2023-05-10T14:58:32;3.87;;;0.90;;
3311;SDS011;1668;49.648;8.570;2023-05-10T15:01:00;2.63;;;0.67;;
3311;SDS011;1668;49.648;8.570;2023-05-10T15:03:26;1.87;;;0.77;;
3311;SDS011;1668;49.648;8.570;2023-05-10T15:05:53;1.43;;;0.73;;
3311;SDS011;1668;49.648;8.570;2023-05-10T15:08:21;2.40;;;0.83;;
3311;SDS011;1668;49.648;8.570;2023-05-10T15:10:48;1.67;;;0.80;;
3311;SDS011;1668;49.648;8.570;2023-05-10T15:13:15;1.53;;;0.73;;
3311;SDS011;1668;49.648;8.570;2023-05-10T15:15:42;4.10;;;1.00;;
3311;SDS011;1668;49.648;8.570;2023-05-10T15:18:10;2.10;;;0.60;;
3311;SDS011;1668;49.648;8.570;2023-05-10T15:20:37;3.13;;;0.80;;
3311;SDS011;1668;49.648;8.570;2023-05-10T15:23:04;1.50;;;0.70;;
3311;SDS011;1668;49.648;8.570;2023-05-10T15:25:31;1.97;;;0.90;;
3311;SDS011;1668;49.648;8.570;2023-05-10T15:27:59;2.07;;;0.83;;
3311;SDS011;1668;49.648;8.570;2023-05-10T15:30:26;1.93;;;0.77;;
3311;SDS011;1668;49.648;8.570;2023-05-10T15:32:53;2.63;;;0.90;;
3311;SDS011;1668;49.648;8.570;2023-05-10T15:35:21;1.10;;;0.73;;